createdAt,value
2022-11-28T00:01:27.773Z,11.77
2022-11-28T00:03:54.382Z,11.85
2022-11-28T00:06:21.096Z,11.98
2022-11-28T00:08:50.476Z,12.43
2022-11-28T00:11:19.925Z,12.02
2022-11-28T00:13:46.778Z,12.38
2022-11-28T00:16:17.130Z,12.85
2022-11-28T00:18:46.102Z,12.73
2022-11-28T00:21:14.559Z,12.50
2022-11-28T00:23:42.382Z,12.45
2022-11-28T00:26:22.584Z,13.27
2022-11-28T00:28:49.099Z,12.85
2022-11-28T00:31:17.931Z,13.75
2022-11-28T00:33:44.788Z,12.75
2022-11-28T00:36:11.888Z,13.60
2022-11-28T00:38:38.897Z,13.55
2022-11-28T00:41:08.067Z,13.57
2022-11-28T00:43:35.089Z,12.95
2022-11-28T00:46:02.139Z,13.32
2022-11-28T00:48:29.018Z,13.35
2022-11-28T00:53:27.506Z,13.50
2022-11-28T00:55:54.002Z,13.75
2022-11-28T00:58:20.548Z,13.05
2022-11-28T01:00:47.243Z,13.82
2022-11-28T01:03:13.815Z,13.43
2022-11-28T01:05:42.198Z,13.10
2022-11-28T01:08:09.826Z,13.30
2022-11-28T01:10:45.186Z,13.43
2022-11-28T01:13:13.944Z,13.65
2022-11-28T01:15:42.467Z,13.68
2022-11-28T01:18:09.502Z,13.95
2022-11-28T01:20:36.443Z,13.35
2022-11-28T01:23:03.221Z,14.07
2022-11-28T01:25:29.908Z,14.00
2022-11-28T01:27:56.451Z,13.40
2022-11-28T01:30:22.979Z,13.15
2022-11-28T01:32:49.545Z,13.40
2022-11-28T01:35:16.142Z,13.35
2022-11-28T01:37:45.721Z,14.02
2022-11-28T01:40:13.504Z,14.00
2022-11-28T01:42:40.029Z,13.15
2022-11-28T01:45:14.034Z,13.75
2022-11-28T01:47:41.218Z,13.38
2022-11-28T01:50:10.955Z,14.48
2022-11-28T01:52:40.316Z,13.85
2022-11-28T01:55:11.807Z,13.88
2022-11-28T01:57:39.036Z,14.43
2022-11-28T02:00:09.039Z,13.50
2022-11-28T02:02:47.236Z,13.75
2022-11-28T02:05:14.364Z,13.80
2022-11-28T02:07:41.298Z,13.85
2022-11-28T02:10:10.620Z,13.23
2022-11-28T02:12:55.454Z,13.02
2022-11-28T02:15:47.922Z,12.75
2022-11-28T02:18:23.210Z,13.23
2022-11-28T02:21:31.124Z,14.02
2022-11-28T02:24:19.867Z,14.10
2022-11-28T02:26:57.758Z,13.85
2022-11-28T02:30:02.002Z,14.10
2022-11-28T02:32:47.158Z,13.52
2022-11-28T02:35:20.971Z,14.00
2022-11-28T02:37:50.551Z,12.57
2022-11-28T02:40:35.611Z,14.13
2022-11-28T02:43:18.849Z,14.35
2022-11-28T02:45:57.669Z,13.63
2022-11-28T02:48:32.020Z,13.75
2022-11-28T02:51:10.468Z,13.57
2022-11-28T02:53:37.801Z,13.38
2022-11-28T02:56:04.965Z,13.38
2022-11-28T02:58:31.558Z,14.38
2022-11-28T03:00:58.303Z,13.60
2022-11-28T03:03:53.671Z,12.98
2022-11-28T03:06:26.295Z,13.40
2022-11-28T03:09:11.510Z,12.80
2022-11-28T03:11:50.500Z,13.63
2022-11-28T03:14:45.173Z,13.02
2022-11-28T03:17:29.595Z,13.70
2022-11-28T03:19:59.747Z,14.13
2022-11-28T03:22:35.357Z,14.45
2022-11-28T03:25:43.390Z,14.25
2022-11-28T03:28:33.230Z,14.45
2022-11-28T03:31:07.911Z,14.48
2022-11-28T03:33:38.737Z,14.93
2022-11-28T03:36:46.160Z,14.43
2022-11-28T03:39:16.175Z,14.25
2022-11-28T03:41:50.367Z,14.52
2022-11-28T03:44:23.127Z,14.45
2022-11-28T03:46:51.955Z,14.43
2022-11-28T03:49:25.527Z,14.00
2022-11-28T03:52:06.194Z,14.15
2022-11-28T03:54:46.888Z,14.23
2022-11-28T03:57:21.432Z,13.73
2022-11-28T03:59:51.092Z,13.35
2022-11-28T04:02:34.325Z,13.45
2022-11-28T04:05:11.209Z,12.75
2022-11-28T04:07:56.192Z,12.65
2022-11-28T04:10:42.045Z,12.35
2022-11-28T04:13:11.612Z,12.90
2022-11-28T04:15:38.829Z,12.95
2022-11-28T04:18:25.300Z,12.57
2022-11-28T04:20:55.228Z,12.93
2022-11-28T04:23:22.933Z,12.93
2022-11-28T04:25:58.117Z,11.35
2022-11-28T04:28:30.634Z,11.48
2022-11-28T04:31:00.114Z,11.00
2022-11-28T04:33:31.737Z,11.07
2022-11-28T04:36:02.499Z,11.55
2022-11-28T04:38:31.209Z,10.95
2022-11-28T04:41:02.545Z,11.60
2022-11-28T04:43:43.575Z,11.80
2022-11-28T04:46:17.467Z,11.38
2022-11-28T04:48:44.583Z,11.35
2022-11-28T04:51:29.007Z,11.60
2022-11-28T04:54:11.118Z,11.93
2022-11-28T04:57:15.992Z,11.13
2022-11-28T04:59:43.540Z,11.63
2022-11-28T05:02:13.467Z,11.38
2022-11-28T05:04:43.027Z,11.90
2022-11-28T05:07:12.707Z,11.65
2022-11-28T05:09:39.830Z,12.13
2022-11-28T05:12:06.570Z,12.35
2022-11-28T05:14:33.229Z,12.52
2022-11-28T05:16:59.792Z,12.20
2022-11-28T05:19:26.494Z,13.73
2022-11-28T05:21:55.801Z,13.30
2022-11-28T05:24:22.677Z,13.15
2022-11-28T05:26:49.804Z,13.70
2022-11-28T05:29:16.807Z,12.98
2022-11-28T05:31:43.550Z,12.35
2022-11-28T05:34:10.227Z,12.15
2022-11-28T05:36:39.688Z,12.20
2022-11-28T05:39:06.256Z,11.80
2022-11-28T05:41:33.833Z,13.00
2022-11-28T05:44:00.959Z,13.02
2022-11-28T05:46:30.466Z,13.63
2022-11-28T05:48:59.762Z,13.20
2022-11-28T05:51:26.391Z,14.00
2022-11-28T05:53:55.418Z,14.23
2022-11-28T05:56:23.470Z,13.70
2022-11-28T05:58:50.520Z,14.30
2022-11-28T06:01:23.433Z,14.18
2022-11-28T06:03:50.357Z,15.32
2022-11-28T06:06:22.299Z,15.02
2022-11-28T06:08:51.489Z,16.27
2022-11-28T06:11:19.475Z,18.65
2022-11-28T06:13:47.514Z,16.65
2022-11-28T06:16:17.525Z,16.98
2022-11-28T06:18:44.247Z,16.90
2022-11-28T06:21:12.645Z,14.52
2022-11-28T06:23:40.158Z,13.52
2022-11-28T06:26:15.596Z,12.93
2022-11-28T06:28:42.524Z,13.80
2022-11-28T06:31:18.683Z,12.77
2022-11-28T06:33:48.576Z,12.63
2022-11-28T06:36:17.064Z,12.32
2022-11-28T06:38:44.404Z,14.13
2022-11-28T06:41:13.512Z,13.20
2022-11-28T06:43:40.591Z,12.88
2022-11-28T06:46:16.906Z,13.13
2022-11-28T06:48:44.812Z,11.95
2022-11-28T06:51:11.684Z,13.43
2022-11-28T06:53:38.363Z,11.73
2022-11-28T06:56:06.885Z,12.52
2022-11-28T06:58:34.176Z,11.63
2022-11-28T07:01:34.340Z,11.85
2022-11-28T07:04:02.023Z,11.90
2022-11-28T07:06:29.273Z,12.45
2022-11-28T07:08:58.026Z,11.63
2022-11-28T07:11:27.427Z,11.63
2022-11-28T07:13:55.325Z,11.85
2022-11-28T07:16:24.681Z,11.10
2022-11-28T07:18:52.255Z,12.63
2022-11-28T07:21:19.449Z,12.55
2022-11-28T07:23:46.793Z,13.13
2022-11-28T07:26:15.245Z,13.65
2022-11-28T07:28:42.302Z,12.43
2022-11-28T07:31:10.674Z,11.88
2022-11-28T07:33:39.161Z,12.48
2022-11-28T07:36:09.973Z,18.08
2022-11-28T07:38:36.497Z,15.93
2022-11-28T07:41:13.797Z,14.10
2022-11-28T07:43:43.765Z,13.77
2022-11-28T07:46:13.648Z,13.77
2022-11-28T07:48:40.363Z,15.13
2022-11-28T07:51:09.661Z,14.98
2022-11-28T07:53:39.747Z,14.95
2022-11-28T07:56:10.796Z,14.38
2022-11-28T07:58:38.990Z,54.60
2022-11-28T08:01:14.533Z,20.33
2022-11-28T08:03:41.200Z,15.10
2022-11-28T08:06:08.401Z,15.70
2022-11-28T08:08:35.351Z,15.32
2022-11-28T08:11:04.450Z,17.98
2022-11-28T08:13:31.485Z,15.32
2022-11-28T08:15:58.350Z,14.80
2022-11-28T08:18:25.057Z,16.25
2022-11-28T08:20:51.634Z,15.77
2022-11-28T08:23:18.203Z,16.17
2022-11-28T08:25:44.791Z,17.13
2022-11-28T08:28:11.416Z,15.10
2022-11-28T08:30:38.037Z,16.52
2022-11-28T08:33:04.627Z,15.93
2022-11-28T08:35:31.290Z,15.82
2022-11-28T08:38:01.826Z,15.82
2022-11-28T08:40:28.868Z,14.80
2022-11-28T08:42:55.866Z,15.25
2022-11-28T08:45:22.515Z,16.88
2022-11-28T08:47:49.064Z,17.55
2022-11-28T08:50:18.043Z,16.65
2022-11-28T08:52:44.608Z,16.33
2022-11-28T08:55:11.169Z,15.70
2022-11-28T08:57:37.736Z,14.85
2022-11-28T09:00:06.219Z,13.90
2022-11-28T09:02:32.801Z,14.75
2022-11-28T09:04:59.318Z,14.82
2022-11-28T09:07:25.913Z,14.43
2022-11-28T09:09:52.474Z,15.35
2022-11-28T09:12:19.072Z,14.68
2022-11-28T09:14:45.657Z,14.98
2022-11-28T09:17:12.448Z,14.43
2022-11-28T09:19:39.149Z,13.50
2022-11-28T09:22:05.690Z,12.75
2022-11-28T09:24:32.261Z,15.77
2022-11-28T09:26:58.842Z,15.27
2022-11-28T09:29:29.326Z,14.32
2022-11-28T09:31:55.906Z,14.38
2022-11-28T09:34:22.470Z,14.93
2022-11-28T09:36:50.142Z,14.85
2022-11-28T09:39:16.685Z,16.55
2022-11-28T09:41:58.771Z,14.38
2022-11-28T09:44:41.990Z,13.27
2022-11-28T09:47:23.170Z,14.40
2022-11-28T09:49:58.195Z,12.75
2022-11-28T09:52:39.710Z,13.50
2022-11-28T09:55:06.478Z,18.50
2022-11-28T09:57:55.999Z,14.90
2022-11-28T10:00:34.890Z,13.40
2022-11-28T10:03:16.752Z,11.73
2022-11-28T10:05:48.006Z,12.15
2022-11-28T10:08:30.988Z,14.15
2022-11-28T10:11:00.417Z,12.25
2022-11-28T10:13:32.643Z,12.60
2022-11-28T10:16:32.847Z,11.90
2022-11-28T10:19:20.329Z,12.63
2022-11-28T10:22:00.503Z,12.63
2022-11-28T10:24:37.348Z,12.50
2022-11-28T10:27:06.075Z,12.77
2022-11-28T10:29:41.971Z,12.85
2022-11-28T10:32:15.129Z,12.48
2022-11-28T10:34:55.455Z,12.57
2022-11-28T10:37:31.881Z,13.32
2022-11-28T10:40:17.297Z,13.75
2022-11-28T10:43:00.070Z,14.15
2022-11-28T10:45:42.965Z,13.38
2022-11-28T10:51:22.851Z,12.07
2022-11-28T10:56:44.439Z,11.70
2022-11-28T10:59:49.795Z,13.18
2022-11-28T11:02:40.925Z,12.55
2022-11-28T11:05:20.510Z,11.38
2022-11-28T11:08:06.065Z,11.80
2022-11-28T11:11:00.723Z,11.40
2022-11-28T11:13:30.000Z,11.35
2022-11-28T11:16:11.632Z,12.85
2022-11-28T11:18:53.429Z,11.85
2022-11-28T11:21:25.941Z,11.23
2022-11-28T11:24:15.596Z,11.10
2022-11-28T11:26:46.131Z,10.38
2022-11-28T11:29:40.201Z,11.50
2022-11-28T11:32:18.239Z,11.60
2022-11-28T11:34:46.327Z,24.58
2022-11-28T11:37:33.685Z,13.52
2022-11-28T11:40:02.346Z,12.52
2022-11-28T11:42:32.043Z,13.25
2022-11-28T11:45:24.627Z,11.38
2022-11-28T11:47:54.031Z,12.60
2022-11-28T11:50:23.874Z,12.15
2022-11-28T11:53:12.343Z,13.02
2022-11-28T11:56:02.497Z,13.93
2022-11-28T11:58:40.717Z,12.40
2022-11-28T12:01:08.799Z,13.13
2022-11-28T12:03:48.367Z,14.35
2022-11-28T12:06:25.000Z,14.15
2022-11-28T12:08:55.041Z,12.68
2022-11-28T12:11:29.447Z,13.25
2022-11-28T12:14:03.316Z,13.65
2022-11-28T12:16:32.618Z,13.35
2022-11-28T12:19:03.566Z,13.38
2022-11-28T12:22:06.903Z,11.85
2022-11-28T12:24:52.306Z,12.48
2022-11-28T12:27:30.574Z,13.20
2022-11-28T12:30:09.360Z,12.60
2022-11-28T12:32:41.656Z,11.63
2022-11-28T12:35:16.900Z,13.32
2022-11-28T12:38:18.688Z,12.65
2022-11-28T12:41:11.498Z,12.25
2022-11-28T12:44:33.536Z,12.73
2022-11-28T12:47:43.288Z,12.50
2022-11-28T12:50:12.670Z,12.93
2022-11-28T12:52:56.012Z,12.77
2022-11-28T12:55:40.975Z,11.00
2022-11-28T12:58:13.444Z,11.45
2022-11-28T13:01:18.268Z,11.88
2022-11-28T13:04:03.438Z,11.23
2022-11-28T13:07:03.402Z,10.93
2022-11-28T13:09:37.212Z,11.68
2022-11-28T13:12:22.514Z,11.10
2022-11-28T13:14:57.501Z,9.85
2022-11-28T13:17:42.160Z,9.32
2022-11-28T13:20:23.412Z,9.50
2022-11-28T13:23:00.941Z,11.02
2022-11-28T13:25:42.766Z,11.63
2022-11-28T13:28:21.902Z,10.23
2022-11-28T13:30:57.276Z,9.60
2022-11-28T13:33:38.267Z,10.20
2022-11-28T13:36:09.227Z,9.68
2022-11-28T13:39:13.198Z,9.80
2022-11-28T13:42:21.471Z,10.07
2022-11-28T13:44:36.285Z,11.85
2022-11-28T13:47:27.796Z,9.65
2022-11-28T13:50:22.941Z,9.10
2022-11-28T13:53:10.171Z,9.43
2022-11-28T13:55:49.612Z,10.38
2022-11-28T13:58:22.296Z,10.18
2022-11-28T14:01:09.395Z,9.32
2022-11-28T14:04:00.505Z,8.52
2022-11-28T14:06:41.583Z,8.95
2022-11-28T14:09:33.506Z,9.27
2022-11-28T14:12:15.208Z,8.90
2022-11-28T14:14:51.930Z,9.57
2022-11-28T14:17:42.718Z,9.70
2022-11-28T14:20:56.525Z,9.63
2022-11-28T14:23:59.290Z,9.10
2022-11-28T14:26:38.926Z,9.43
2022-11-28T14:29:24.743Z,9.18
2022-11-28T14:32:14.090Z,9.50
2022-11-28T14:34:42.854Z,9.50
2022-11-28T14:37:21.780Z,9.20
2022-11-28T14:39:51.896Z,10.00
2022-11-28T14:42:58.182Z,9.73
2022-11-28T14:45:33.264Z,8.68
2022-11-28T14:48:36.842Z,9.07
2022-11-28T14:51:03.409Z,11.15
2022-11-28T14:53:36.246Z,10.13
2022-11-28T14:56:29.175Z,10.10
2022-11-28T14:58:58.796Z,11.40
2022-11-28T15:01:49.974Z,11.80
2022-11-28T15:04:38.321Z,14.02
2022-11-28T15:07:12.529Z,11.10
2022-11-28T15:09:47.834Z,15.93
2022-11-28T15:12:37.453Z,23.75
2022-11-28T15:15:07.921Z,17.98
2022-11-28T15:17:35.002Z,16.30
2022-11-28T15:20:17.239Z,12.73
2022-11-28T15:22:46.650Z,13.73
2022-11-28T15:25:25.028Z,18.63
2022-11-28T15:27:51.799Z,15.60
2022-11-28T15:30:23.609Z,12.35
2022-11-28T15:32:54.018Z,10.95
2022-11-28T15:35:23.063Z,11.57
2022-11-28T15:37:52.918Z,11.73
2022-11-28T15:40:26.384Z,12.05
2022-11-28T15:42:52.998Z,12.93
2022-11-28T15:45:28.771Z,12.27
2022-11-28T15:47:57.041Z,12.30
2022-11-28T15:50:29.375Z,12.13
2022-11-28T15:52:58.154Z,11.20
2022-11-28T15:55:27.343Z,13.20
2022-11-28T15:58:17.975Z,14.60
2022-11-28T16:00:50.526Z,12.15
2022-11-28T16:03:22.681Z,10.60
2022-11-28T16:05:56.583Z,11.40
2022-11-28T16:08:30.583Z,12.45
2022-11-28T16:11:04.971Z,13.23
2022-11-28T16:13:33.225Z,15.55
2022-11-28T16:16:04.289Z,18.38
2022-11-28T16:18:34.006Z,14.88
2022-11-28T16:21:02.205Z,14.95
2022-11-28T16:23:34.906Z,16.75
2022-11-28T16:26:23.542Z,15.10
2022-11-28T16:29:08.074Z,15.13
2022-11-28T16:31:38.282Z,14.43
2022-11-28T16:34:05.993Z,16.83
2022-11-28T16:36:37.379Z,18.52
2022-11-28T16:39:17.938Z,12.52
2022-11-28T16:42:05.563Z,16.63
2022-11-28T16:44:33.600Z,22.55
2022-11-28T16:47:00.830Z,19.35
2022-11-28T16:49:35.865Z,18.58
2022-11-28T16:52:21.239Z,19.27
2022-11-28T16:54:48.916Z,21.00
2022-11-28T16:57:15.865Z,15.70
2022-11-28T16:59:44.344Z,16.20
2022-11-28T17:02:22.831Z,15.57
2022-11-28T17:04:52.041Z,14.05
2022-11-28T17:07:21.191Z,14.82
2022-11-28T17:09:50.833Z,13.98
2022-11-28T17:12:23.327Z,14.80
2022-11-28T17:14:52.207Z,13.82
2022-11-28T17:17:20.119Z,15.35
2022-11-28T17:19:49.103Z,15.80
2022-11-28T17:22:19.675Z,16.15
2022-11-28T17:24:47.775Z,22.95
2022-11-28T17:27:16.833Z,32.10
2022-11-28T17:29:43.874Z,21.70
2022-11-28T17:32:12.372Z,23.80
2022-11-28T17:34:39.021Z,20.23
2022-11-28T17:37:05.865Z,18.92
2022-11-28T17:39:32.933Z,16.45
2022-11-28T17:41:59.557Z,16.80
2022-11-28T17:44:31.681Z,20.27
2022-11-28T17:47:00.500Z,23.70
2022-11-28T17:49:33.359Z,21.67
2022-11-28T17:52:02.478Z,20.50
2022-11-28T17:54:31.275Z,19.77
2022-11-28T17:56:57.971Z,18.75
2022-11-28T17:59:24.710Z,17.45
2022-11-28T18:01:51.538Z,18.35
2022-11-28T18:04:18.152Z,16.73
2022-11-28T18:06:46.452Z,16.50
2022-11-28T18:09:14.454Z,16.60
2022-11-28T18:11:42.530Z,17.80
2022-11-28T18:14:11.857Z,17.83
2022-11-28T18:16:40.261Z,19.27
2022-11-28T18:19:07.034Z,26.05
2022-11-28T18:21:33.812Z,21.05
2022-11-28T18:24:00.301Z,19.40
2022-11-28T18:26:27.117Z,17.77
2022-11-28T18:28:54.275Z,17.02
2022-11-28T18:31:24.484Z,23.00
2022-11-28T18:33:51.785Z,18.55
2022-11-28T18:36:24.398Z,17.73
2022-11-28T18:38:55.183Z,18.63
2022-11-28T18:41:22.104Z,18.65
2022-11-28T18:43:48.721Z,21.83
2022-11-28T18:46:21.273Z,24.77
2022-11-28T18:48:48.459Z,22.52
2022-11-28T18:51:19.827Z,22.27
2022-11-28T18:53:49.584Z,22.20
2022-11-28T18:56:17.144Z,18.95
2022-11-28T18:58:47.891Z,18.40
2022-11-28T19:01:16.325Z,19.80
2022-11-28T19:03:43.851Z,20.92
2022-11-28T19:06:12.116Z,19.02
2022-11-28T19:08:41.467Z,17.08
2022-11-28T19:11:10.110Z,23.15
2022-11-28T19:13:39.689Z,18.67
2022-11-28T19:16:07.842Z,18.83
2022-11-28T19:18:36.294Z,18.52
2022-11-28T19:21:11.795Z,17.52
2022-11-28T19:23:38.721Z,18.05
2022-11-28T19:26:08.496Z,16.98
2022-11-28T19:28:36.421Z,17.67
2022-11-28T19:31:22.689Z,17.13
2022-11-28T19:34:00.411Z,18.80
2022-11-28T19:36:31.328Z,18.27
2022-11-28T19:38:59.034Z,17.77
2022-11-28T19:41:25.831Z,16.83
2022-11-28T19:43:56.935Z,18.65
2022-11-28T19:46:24.119Z,20.63
2022-11-28T19:48:51.816Z,19.95
2022-11-28T19:51:19.442Z,23.52
2022-11-28T19:53:48.504Z,22.15
2022-11-28T19:56:22.620Z,18.70
2022-11-28T19:58:49.621Z,18.92
2022-11-28T20:01:17.457Z,16.90
2022-11-28T20:03:47.651Z,16.60
2022-11-28T20:06:22.463Z,17.25
2022-11-28T20:08:50.431Z,16.50
2022-11-28T20:11:23.139Z,16.75
2022-11-28T20:13:59.619Z,16.42
2022-11-28T20:16:30.083Z,17.15
2022-11-28T20:18:56.860Z,16.20
2022-11-28T20:21:25.903Z,17.33
2022-11-28T20:23:55.199Z,17.60
2022-11-28T20:26:24.410Z,17.95
2022-11-28T20:28:50.893Z,18.15
2022-11-28T20:31:21.956Z,17.65
2022-11-28T20:33:49.564Z,16.27
2022-11-28T20:36:18.481Z,17.30
2022-11-28T20:38:45.710Z,17.17
2022-11-28T20:41:13.772Z,16.85
2022-11-28T20:43:40.920Z,16.30
2022-11-28T20:46:10.321Z,16.98
2022-11-28T20:48:37.491Z,18.58
2022-11-28T20:51:08.882Z,17.30
2022-11-28T20:53:37.406Z,17.30
2022-11-28T20:56:07.157Z,16.73
2022-11-28T20:58:34.054Z,16.65
2022-11-28T21:01:03.506Z,16.65
2022-11-28T21:03:30.047Z,15.57
2022-11-28T21:06:01.005Z,16.67
2022-11-28T21:08:30.393Z,16.92
2022-11-28T21:10:57.473Z,16.80
2022-11-28T21:13:26.219Z,16.63
2022-11-28T21:15:58.469Z,16.77
2022-11-28T21:18:24.943Z,17.20
2022-11-28T21:20:53.909Z,16.80
2022-11-28T21:23:20.494Z,21.67
2022-11-28T21:25:46.953Z,21.30
2022-11-28T21:28:13.476Z,24.63
2022-11-28T21:30:46.384Z,20.67
2022-11-28T21:33:13.172Z,17.63
2022-11-28T21:35:40.338Z,16.50
2022-11-28T21:38:07.686Z,17.00
2022-11-28T21:40:34.260Z,17.38
2022-11-28T21:43:00.847Z,16.13
2022-11-28T21:45:27.657Z,17.10
2022-11-28T21:47:54.209Z,16.15
2022-11-28T21:50:20.750Z,16.38
2022-11-28T21:52:47.225Z,15.88
2022-11-28T21:55:13.711Z,16.83
2022-11-28T21:57:42.689Z,16.10
2022-11-28T22:00:20.714Z,15.82
2022-11-28T22:03:02.852Z,16.10
2022-11-28T22:05:34.658Z,16.17
2022-11-28T22:08:01.465Z,15.80
2022-11-28T22:10:28.132Z,16.73
2022-11-28T22:12:54.685Z,16.23
2022-11-28T22:15:22.157Z,16.00
2022-11-28T22:17:48.603Z,15.40
2022-11-28T22:20:15.122Z,17.00
2022-11-28T22:22:41.608Z,16.67
2022-11-28T22:25:08.300Z,18.08
2022-11-28T22:27:35.567Z,18.38
2022-11-28T22:30:02.119Z,19.27
2022-11-28T22:32:30.917Z,20.35
2022-11-28T22:34:57.467Z,24.67
2022-11-28T22:37:23.942Z,17.95
2022-11-28T22:39:50.432Z,16.13
2022-11-28T22:42:16.937Z,16.08
2022-11-28T22:44:43.670Z,15.77
2022-11-28T22:47:10.330Z,17.88
2022-11-28T22:49:36.777Z,17.88
2022-11-28T22:52:03.348Z,16.88
2022-11-28T22:54:29.783Z,18.65
2022-11-28T22:56:56.325Z,17.75
2022-11-28T22:59:23.030Z,16.55
2022-11-28T23:01:49.719Z,16.33
2022-11-28T23:04:16.277Z,18.05
2022-11-28T23:06:42.835Z,17.02
2022-11-28T23:09:10.552Z,16.73
2022-11-28T23:11:41.019Z,16.08
2022-11-28T23:14:10.220Z,16.58
2022-11-28T23:16:41.699Z,16.75
2022-11-28T23:19:13.320Z,18.05
2022-11-28T23:21:42.170Z,19.67
2022-11-28T23:24:15.497Z,18.45
2022-11-28T23:26:41.959Z,18.70
2022-11-28T23:29:09.088Z,18.00
2022-11-28T23:31:38.983Z,18.92
2022-11-28T23:34:06.345Z,16.73
2022-11-28T23:36:41.506Z,16.38
2022-11-28T23:39:18.329Z,15.40
2022-11-28T23:41:45.766Z,15.95
2022-11-28T23:44:13.559Z,17.75
2022-11-28T23:46:43.049Z,17.65
2022-11-28T23:49:09.966Z,17.80
2022-11-28T23:51:37.545Z,17.20
2022-11-28T23:54:07.745Z,17.70
2022-11-28T23:56:35.534Z,17.27
2022-11-28T23:59:04.415Z,16.85
